createdAt,value
2019-03-28T00:01:06.155Z,1.00
2019-03-28T00:03:38.795Z,1.10
2019-03-28T00:06:13.200Z,1.00
2019-03-28T00:08:45.882Z,0.95
2019-03-28T00:11:18.628Z,0.90
2019-03-28T00:13:51.746Z,0.90
2019-03-28T00:16:24.410Z,0.80
2019-03-28T00:18:57.589Z,0.98
2019-03-28T00:21:30.404Z,0.90
2019-03-28T00:24:20.695Z,1.22
2019-03-28T00:26:53.350Z,0.98
2019-03-28T00:29:25.953Z,0.70
2019-03-28T00:31:58.623Z,0.80
2019-03-28T00:34:31.310Z,0.90
2019-03-28T00:37:03.908Z,0.80
2019-03-28T00:39:36.460Z,1.00
2019-03-28T00:42:09.039Z,0.90
2019-03-28T00:44:41.627Z,0.93
2019-03-28T00:47:14.172Z,1.00
2019-03-28T00:49:46.788Z,0.80
2019-03-28T00:52:19.257Z,0.88
2019-03-28T00:54:51.822Z,0.70
2019-03-28T00:57:24.293Z,1.00
2019-03-28T00:59:57.079Z,1.00
2019-03-28T01:02:29.615Z,0.80
2019-03-28T01:05:02.238Z,0.98
2019-03-28T01:07:34.883Z,0.72
2019-03-28T01:10:07.511Z,0.85
2019-03-28T01:12:40.168Z,0.80
2019-03-28T01:15:12.660Z,0.90
2019-03-28T01:17:45.321Z,0.95
2019-03-28T01:20:17.807Z,0.80
2019-03-28T01:22:50.140Z,0.80
2019-03-28T01:25:23.274Z,0.80
2019-03-28T01:27:55.736Z,0.95
2019-03-28T01:30:28.348Z,0.90
2019-03-28T01:33:00.943Z,0.88
2019-03-28T01:35:33.571Z,1.10
2019-03-28T01:38:06.134Z,0.90
2019-03-28T01:40:38.706Z,0.80
2019-03-28T01:43:11.277Z,0.70
2019-03-28T01:45:43.824Z,0.93
2019-03-28T01:48:16.397Z,1.07
2019-03-28T01:50:49.032Z,0.70
2019-03-28T01:53:21.726Z,0.80
2019-03-28T01:55:54.434Z,0.90
2019-03-28T01:58:27.188Z,0.80
2019-03-28T02:01:02.794Z,0.90
2019-03-28T02:03:34.170Z,0.82
2019-03-28T02:06:06.758Z,0.70
2019-03-28T02:08:39.331Z,0.80
2019-03-28T02:11:12.114Z,0.80
2019-03-28T02:13:44.793Z,0.88
2019-03-28T02:16:17.514Z,0.70
2019-03-28T02:18:50.123Z,0.72
2019-03-28T02:21:22.753Z,0.82
2019-03-28T02:23:55.265Z,0.70
2019-03-28T02:26:27.828Z,0.78
2019-03-28T02:29:00.460Z,0.78
2019-03-28T02:31:33.149Z,0.82
2019-03-28T02:34:05.727Z,0.85
2019-03-28T02:36:38.309Z,0.70
2019-03-28T02:39:10.978Z,0.90
2019-03-28T02:41:43.720Z,0.85
2019-03-28T02:44:16.268Z,1.00
2019-03-28T02:46:48.904Z,0.98
2019-03-28T02:49:21.444Z,0.72
2019-03-28T02:51:54.203Z,0.80
2019-03-28T02:54:26.848Z,0.80
2019-03-28T02:56:59.486Z,0.95
2019-03-28T02:59:32.243Z,0.93
2019-03-28T03:02:05.207Z,0.88
2019-03-28T03:04:37.781Z,1.05
2019-03-28T03:07:10.465Z,0.95
2019-03-28T03:09:43.040Z,0.80
2019-03-28T03:12:15.922Z,1.00
2019-03-28T03:14:48.593Z,0.80
2019-03-28T03:17:21.211Z,1.00
2019-03-28T03:19:53.861Z,0.90
2019-03-28T03:22:26.542Z,0.90
2019-03-28T03:24:59.129Z,0.90
2019-03-28T03:27:31.791Z,0.98
2019-03-28T03:30:08.259Z,0.90
2019-03-28T03:32:41.062Z,0.90
2019-03-28T03:35:13.679Z,0.88
2019-03-28T03:37:46.307Z,0.85
2019-03-28T03:40:18.949Z,0.70
2019-03-28T03:42:51.660Z,0.90
2019-03-28T03:45:24.334Z,0.70
2019-03-28T03:47:57.019Z,0.70
2019-03-28T03:50:30.123Z,1.00
2019-03-28T03:53:02.786Z,1.10
2019-03-28T03:55:35.465Z,0.85
2019-03-28T03:58:16.444Z,1.12
2019-03-28T04:00:43.013Z,1.00
2019-03-28T04:03:15.582Z,1.00
2019-03-28T04:05:48.653Z,1.07
2019-03-28T04:08:21.388Z,1.05
2019-03-28T04:10:56.590Z,1.10
2019-03-28T04:13:29.249Z,0.90
2019-03-28T04:16:02.250Z,1.00
2019-03-28T04:18:35.294Z,1.10
2019-03-28T04:21:08.005Z,1.00
2019-03-28T04:23:42.122Z,1.07
2019-03-28T04:26:15.309Z,1.02
2019-03-28T04:28:48.495Z,1.02
2019-03-28T04:31:23.609Z,1.00
2019-03-28T04:33:56.581Z,1.00
2019-03-28T04:36:29.615Z,1.02
2019-03-28T04:39:02.118Z,1.10
2019-03-28T04:41:35.621Z,1.20
2019-03-28T04:44:08.785Z,1.10
2019-03-28T04:46:41.556Z,0.98
2019-03-28T04:49:15.723Z,1.12
2019-03-28T04:51:48.600Z,1.10
2019-03-28T04:54:21.341Z,0.93
2019-03-28T04:56:53.909Z,0.90
2019-03-28T04:59:26.593Z,1.10
2019-03-28T05:02:03.246Z,1.10
2019-03-28T05:04:33.701Z,1.10
2019-03-28T05:07:06.371Z,1.40
2019-03-28T05:09:38.960Z,1.20
2019-03-28T05:12:11.630Z,1.00
2019-03-28T05:14:44.209Z,1.30
2019-03-28T05:17:16.794Z,1.12
2019-03-28T05:19:49.485Z,1.40
2019-03-28T05:22:22.492Z,1.25
2019-03-28T05:24:55.457Z,1.40
2019-03-28T05:27:28.560Z,1.40
2019-03-28T05:30:01.333Z,1.10
2019-03-28T05:32:34.195Z,1.15
2019-03-28T05:35:07.129Z,1.20
2019-03-28T05:37:39.728Z,1.60
2019-03-28T05:40:12.339Z,1.50
2019-03-28T05:42:45.128Z,3.60
2019-03-28T05:45:17.969Z,10.65
2019-03-28T05:47:50.582Z,12.07
2019-03-28T05:50:23.269Z,9.50
2019-03-28T05:52:55.933Z,7.28
2019-03-28T05:55:28.386Z,5.92
2019-03-28T05:58:00.995Z,5.60
2019-03-28T06:00:33.741Z,5.50
2019-03-28T06:03:06.393Z,5.20
2019-03-28T06:05:39.141Z,4.90
2019-03-28T06:08:11.861Z,4.42
2019-03-28T06:10:44.424Z,5.50
2019-03-28T06:13:17.093Z,4.40
2019-03-28T06:15:49.495Z,4.10
2019-03-28T06:18:21.977Z,3.47
2019-03-28T06:20:55.377Z,3.25
2019-03-28T06:23:28.062Z,3.62
2019-03-28T06:26:00.665Z,3.00
2019-03-28T06:28:33.301Z,2.83
2019-03-28T06:31:05.757Z,2.65
2019-03-28T06:33:38.523Z,2.60
2019-03-28T06:36:11.226Z,2.72
2019-03-28T06:38:43.614Z,2.95
2019-03-28T06:41:16.408Z,2.92
2019-03-28T06:43:48.997Z,2.90
2019-03-28T06:46:21.601Z,2.95
2019-03-28T06:48:54.116Z,2.55
2019-03-28T06:51:26.655Z,2.55
2019-03-28T06:53:59.168Z,2.30
2019-03-28T06:56:31.704Z,2.35
2019-03-28T06:59:04.531Z,2.40
2019-03-28T07:01:37.078Z,2.20
2019-03-28T07:04:09.589Z,2.45
2019-03-28T07:06:42.054Z,2.20
2019-03-28T07:09:15.942Z,1.92
2019-03-28T07:11:49.980Z,2.10
2019-03-28T07:14:22.378Z,2.10
2019-03-28T07:16:55.061Z,1.92
2019-03-28T07:19:27.631Z,2.00
2019-03-28T07:22:00.159Z,2.08
2019-03-28T07:24:32.812Z,1.90
2019-03-28T07:27:05.522Z,1.90
2019-03-28T07:29:50.246Z,1.80
2019-03-28T07:32:12.034Z,1.75
2019-03-28T07:34:47.186Z,1.60
2019-03-28T07:37:19.910Z,1.65
2019-03-28T07:39:52.302Z,1.57
2019-03-28T07:42:24.927Z,1.67
2019-03-28T07:44:58.203Z,1.70
2019-03-28T07:47:31.037Z,1.52
2019-03-28T07:50:05.050Z,1.47
2019-03-28T07:52:37.615Z,1.75
2019-03-28T07:55:10.409Z,1.50
2019-03-28T07:57:43.072Z,1.62
2019-03-28T08:00:15.667Z,1.67
2019-03-28T08:02:48.249Z,1.35
2019-03-28T08:05:20.751Z,1.27
2019-03-28T08:07:53.296Z,1.50
2019-03-28T08:10:26.363Z,1.47
2019-03-28T08:12:58.757Z,1.67
2019-03-28T08:15:31.283Z,1.40
2019-03-28T08:18:03.843Z,1.30
2019-03-28T08:20:36.494Z,1.20
2019-03-28T08:23:09.171Z,1.20
2019-03-28T08:25:41.808Z,1.30
2019-03-28T08:28:14.531Z,1.37
2019-03-28T08:30:47.215Z,1.42
2019-03-28T08:33:19.795Z,1.20
2019-03-28T08:35:52.345Z,1.00
2019-03-28T08:38:24.949Z,1.02
2019-03-28T08:40:57.461Z,1.10
2019-03-28T08:43:29.945Z,0.90
2019-03-28T08:46:02.462Z,0.93
2019-03-28T08:48:35.012Z,1.05
2019-03-28T08:51:07.561Z,1.02
2019-03-28T08:53:40.091Z,1.10
2019-03-28T08:56:12.609Z,1.10
2019-03-28T08:58:45.115Z,1.10
2019-03-28T09:01:17.561Z,1.00
2019-03-28T09:03:50.075Z,0.90
2019-03-28T09:06:22.764Z,0.90
2019-03-28T09:08:55.458Z,0.85
2019-03-28T09:11:28.139Z,1.00
2019-03-28T09:14:00.663Z,0.80
2019-03-28T09:16:33.140Z,1.17
2019-03-28T09:19:05.669Z,1.00
2019-03-28T09:21:38.362Z,1.20
2019-03-28T09:24:10.794Z,1.40
2019-03-28T09:26:40.955Z,1.12
2019-03-28T09:29:11.273Z,1.10
2019-03-28T09:31:41.606Z,1.20
2019-03-28T09:34:11.822Z,1.20
2019-03-28T09:36:42.039Z,1.20
2019-03-28T09:39:12.362Z,1.10
2019-03-28T09:41:42.897Z,1.02
2019-03-28T09:44:13.095Z,1.03
2019-03-28T09:46:43.433Z,1.00
2019-03-28T09:49:13.576Z,0.93
2019-03-28T09:51:43.779Z,1.13
2019-03-28T09:54:14.105Z,1.00
2019-03-28T09:56:44.331Z,0.90
2019-03-28T09:59:14.549Z,1.00
2019-03-28T10:01:44.995Z,0.90
2019-03-28T10:04:15.195Z,0.90
2019-03-28T10:06:45.459Z,0.90
2019-03-28T10:09:16.157Z,0.88
2019-03-28T10:11:46.479Z,0.90
2019-03-28T10:14:16.863Z,0.90
2019-03-28T10:16:47.107Z,1.00
2019-03-28T10:19:17.233Z,1.30
2019-03-28T10:21:47.356Z,0.80
2019-03-28T10:24:17.595Z,1.05
2019-03-28T10:26:47.894Z,0.90
2019-03-28T10:29:18.159Z,1.00
2019-03-28T10:31:48.422Z,0.83
2019-03-28T10:34:18.764Z,0.68
2019-03-28T10:36:49.116Z,1.00
2019-03-28T10:39:19.469Z,0.68
2019-03-28T10:41:52.834Z,1.02
2019-03-28T10:44:23.125Z,1.12
2019-03-28T10:46:53.591Z,0.70
2019-03-28T10:49:23.912Z,0.90
2019-03-28T10:51:54.347Z,0.68
2019-03-28T10:54:25.910Z,0.50
2019-03-28T10:56:58.041Z,0.72
2019-03-28T10:59:28.116Z,0.90
2019-03-28T11:01:58.466Z,1.07
2019-03-28T11:04:28.831Z,0.90
2019-03-28T11:06:59.250Z,0.93
2019-03-28T11:09:29.771Z,0.82
2019-03-28T11:12:00.147Z,0.90
2019-03-28T11:14:30.331Z,1.20
2019-03-28T11:17:00.506Z,1.10
2019-03-28T11:19:30.599Z,0.87
2019-03-28T11:22:00.696Z,1.00
2019-03-28T11:24:31.512Z,0.80
2019-03-28T11:29:31.369Z,0.85
2019-03-28T11:32:01.684Z,0.68
2019-03-28T11:34:32.004Z,0.70
2019-03-28T11:37:02.172Z,0.75
2019-03-28T11:39:32.449Z,0.70
2019-03-28T11:42:02.677Z,0.57
2019-03-28T11:44:33.247Z,0.70
2019-03-28T11:47:03.618Z,0.78
2019-03-28T11:49:33.854Z,1.30
2019-03-28T11:52:04.069Z,2.80
2019-03-28T11:54:34.613Z,3.98
2019-03-28T11:57:05.237Z,5.80
2019-03-28T11:59:35.566Z,6.47
2019-03-28T12:02:19.072Z,6.90
2019-03-28T12:04:38.874Z,5.20
2019-03-28T12:07:09.406Z,4.50
2019-03-28T12:09:39.662Z,4.27
2019-03-28T12:12:10.065Z,4.17
2019-03-28T12:14:40.423Z,4.17
2019-03-28T12:17:10.920Z,4.60
2019-03-28T12:19:41.136Z,4.05
2019-03-28T12:22:11.506Z,4.05
2019-03-28T12:24:44.854Z,3.45
2019-03-28T12:27:15.680Z,3.00
2019-03-28T12:29:45.984Z,3.10
2019-03-28T12:32:16.338Z,3.20
2019-03-28T12:34:46.661Z,2.95
2019-03-28T12:37:16.877Z,2.50
2019-03-28T12:39:47.301Z,2.83
2019-03-28T12:42:17.626Z,2.75
2019-03-28T12:44:56.796Z,2.72
2019-03-28T12:47:19.824Z,2.27
2019-03-28T12:49:51.094Z,2.30
2019-03-28T12:52:23.657Z,2.30
2019-03-28T12:54:54.680Z,2.17
2019-03-28T12:57:25.187Z,2.10
2019-03-28T12:59:55.266Z,1.83
2019-03-28T13:02:31.311Z,2.00
2019-03-28T13:04:57.478Z,1.80
2019-03-28T13:07:27.714Z,1.63
2019-03-28T13:09:57.891Z,1.83
2019-03-28T13:12:28.286Z,1.50
2019-03-28T13:14:58.628Z,1.50
2019-03-28T13:17:32.288Z,1.62
2019-03-28T13:20:02.484Z,1.47
2019-03-28T13:22:35.795Z,1.50
2019-03-28T13:25:07.565Z,1.30
2019-03-28T13:27:37.909Z,1.35
2019-03-28T13:30:14.789Z,1.45
2019-03-28T13:32:45.006Z,1.42
2019-03-28T13:35:15.488Z,1.30
2019-03-28T13:37:45.748Z,1.30
2019-03-28T13:40:16.160Z,1.32
2019-03-28T13:42:46.455Z,1.20
2019-03-28T13:45:17.491Z,1.37
2019-03-28T13:47:47.882Z,1.02
2019-03-28T13:50:18.311Z,1.10
2019-03-28T13:52:49.522Z,1.02
2019-03-28T13:57:52.078Z,0.93
2019-03-28T14:00:33.124Z,1.10
2019-03-28T14:03:06.519Z,1.00
2019-03-28T14:05:39.779Z,0.90
2019-03-28T14:08:10.140Z,1.00
2019-03-28T14:10:40.349Z,0.90
2019-03-28T14:13:12.282Z,1.10
2019-03-28T14:15:47.466Z,0.80
2019-03-28T14:18:18.458Z,0.70
2019-03-28T14:20:48.888Z,0.80
2019-03-28T14:23:19.240Z,0.80
2019-03-28T14:25:49.612Z,0.80
2019-03-28T14:28:20.865Z,0.80
2019-03-28T14:30:51.729Z,0.80
2019-03-28T14:33:22.044Z,1.00
2019-03-28T14:35:52.172Z,0.70
2019-03-28T14:38:22.366Z,0.90
2019-03-28T14:40:52.864Z,0.82
2019-03-28T14:43:23.328Z,0.75
2019-03-28T14:45:53.782Z,0.82
2019-03-28T14:48:24.066Z,0.60
2019-03-28T14:50:54.419Z,0.70
2019-03-28T14:53:26.221Z,0.63
2019-03-28T14:55:56.411Z,0.70
2019-03-28T14:58:26.670Z,0.60
2019-03-28T15:00:56.932Z,0.80
2019-03-28T15:03:27.776Z,0.60
2019-03-28T15:05:58.688Z,0.72
2019-03-28T15:08:29.197Z,0.75
2019-03-28T15:10:59.516Z,0.67
2019-03-28T15:13:29.944Z,0.80
2019-03-28T15:16:00.283Z,1.10
2019-03-28T15:18:30.506Z,1.45
2019-03-28T15:21:00.811Z,1.23
2019-03-28T15:23:31.137Z,1.80
2019-03-28T15:26:01.362Z,1.82
2019-03-28T15:28:31.793Z,2.15
2019-03-28T15:31:02.111Z,2.20
2019-03-28T15:33:39.456Z,4.75
2019-03-28T15:36:04.414Z,5.78
2019-03-28T15:38:34.726Z,4.03
2019-03-28T15:41:04.722Z,3.45
2019-03-28T15:43:34.965Z,3.30
2019-03-28T15:46:05.291Z,2.70
2019-03-28T15:48:36.915Z,2.55
2019-03-28T15:51:07.166Z,2.90
2019-03-28T15:53:37.388Z,2.40
2019-03-28T15:56:07.713Z,2.47
2019-03-28T15:58:38.056Z,2.62
2019-03-28T16:01:08.413Z,1.95
2019-03-28T16:03:52.098Z,2.37
2019-03-28T16:06:10.770Z,2.12
2019-03-28T16:08:41.505Z,2.47
2019-03-28T16:11:12.363Z,2.22
2019-03-28T16:13:42.640Z,2.10
2019-03-28T16:16:13.209Z,2.10
2019-03-28T16:18:43.577Z,2.10
2019-03-28T16:21:14.237Z,2.10
2019-03-28T16:23:45.020Z,2.00
2019-03-28T16:28:45.011Z,1.67
2019-03-28T16:31:15.221Z,2.10
2019-03-28T16:33:45.540Z,2.08
2019-03-28T16:36:15.741Z,1.85
2019-03-28T16:38:48.118Z,1.85
2019-03-28T16:41:18.585Z,2.22
2019-03-28T16:43:48.898Z,1.55
2019-03-28T16:46:19.127Z,1.90
2019-03-28T16:48:49.412Z,1.67
2019-03-28T16:51:20.002Z,1.85
2019-03-28T16:53:50.325Z,1.67
2019-03-28T16:56:20.991Z,2.02
2019-03-28T16:58:55.533Z,1.72
2019-03-28T17:01:25.944Z,1.92
2019-03-28T17:03:56.433Z,1.77
2019-03-28T17:06:27.827Z,1.70
2019-03-28T17:08:58.190Z,1.87
2019-03-28T17:11:28.944Z,2.00
2019-03-28T17:14:01.227Z,2.30
2019-03-28T17:16:31.477Z,1.92
2019-03-28T17:19:02.402Z,3.02
2019-03-28T17:21:32.686Z,3.55
2019-03-28T17:24:03.226Z,2.77
2019-03-28T17:26:42.663Z,2.70
2019-03-28T17:29:14.929Z,2.58
2019-03-28T17:31:45.490Z,3.00
2019-03-28T17:34:15.872Z,2.20
2019-03-28T17:36:46.206Z,2.95
2019-03-28T17:39:16.523Z,2.10
2019-03-28T17:41:46.747Z,2.42
2019-03-28T17:44:17.389Z,2.20
2019-03-28T17:46:47.725Z,2.35
2019-03-28T17:49:19.769Z,2.40
2019-03-28T17:51:50.625Z,2.50
2019-03-28T17:54:20.938Z,2.22
2019-03-28T17:56:51.483Z,3.27
2019-03-28T17:59:21.906Z,3.10
2019-03-28T18:01:52.254Z,3.92
2019-03-28T18:04:23.474Z,3.75
2019-03-28T18:06:54.603Z,4.08
2019-03-28T18:11:54.466Z,4.22
2019-03-28T18:14:24.667Z,4.00
2019-03-28T18:16:54.945Z,4.00
2019-03-28T18:19:25.274Z,3.67
2019-03-28T18:22:03.264Z,5.08
2019-03-28T18:24:30.275Z,4.53
2019-03-28T18:26:59.432Z,4.10
2019-03-28T18:29:29.593Z,4.47
2019-03-28T18:31:59.894Z,3.90
2019-03-28T18:34:30.056Z,4.00
2019-03-28T18:37:00.417Z,4.08
2019-03-28T18:39:30.816Z,3.85
2019-03-28T18:42:05.089Z,3.90
2019-03-28T18:44:35.896Z,4.60
2019-03-28T18:47:06.105Z,4.00
2019-03-28T18:49:36.443Z,3.92
2019-03-28T18:52:07.488Z,3.57
2019-03-28T18:54:38.037Z,3.75
2019-03-28T18:57:08.377Z,3.27
2019-03-28T18:59:38.689Z,5.73
2019-03-28T19:02:09.009Z,4.72
2019-03-28T19:04:39.239Z,4.20
2019-03-28T19:07:10.219Z,4.33
2019-03-28T19:09:41.279Z,4.37
2019-03-28T19:12:11.617Z,3.98
2019-03-28T19:14:41.853Z,3.87
2019-03-28T19:17:12.283Z,3.98
2019-03-28T19:19:43.734Z,3.75
2019-03-28T19:22:14.178Z,3.40
2019-03-28T19:24:44.999Z,3.37
2019-03-28T19:27:15.647Z,3.00
2019-03-28T19:29:46.063Z,3.30
2019-03-28T19:32:18.641Z,3.62
2019-03-28T19:34:48.970Z,3.42
2019-03-28T19:37:22.621Z,3.37
2019-03-28T19:39:51.357Z,3.17
2019-03-28T19:42:22.646Z,3.40
2019-03-28T19:44:54.050Z,3.10
2019-03-28T19:49:53.673Z,3.20
2019-03-28T19:52:24.003Z,3.20
2019-03-28T19:54:54.333Z,3.00
2019-03-28T19:57:24.765Z,3.50
2019-03-28T19:59:58.435Z,3.60
2019-03-28T20:02:26.935Z,2.67
2019-03-28T20:04:57.283Z,2.77
2019-03-28T20:07:28.309Z,2.98
2019-03-28T20:09:58.844Z,3.42
2019-03-28T20:12:29.269Z,3.25
2019-03-28T20:15:00.267Z,3.15
2019-03-28T20:17:33.871Z,3.10
2019-03-28T20:20:06.142Z,3.00
2019-03-28T20:22:37.950Z,2.87
2019-03-28T20:25:08.508Z,2.83
2019-03-28T20:27:38.828Z,3.05
2019-03-28T20:30:09.931Z,2.95
2019-03-28T20:32:40.500Z,2.98
2019-03-28T20:35:11.021Z,3.33
2019-03-28T20:37:41.312Z,2.83
2019-03-28T20:40:11.660Z,2.77
2019-03-28T20:42:42.169Z,2.90
2019-03-28T20:45:12.601Z,3.08
2019-03-28T20:47:42.859Z,3.10
2019-03-28T20:50:13.128Z,3.35
2019-03-28T20:52:44.692Z,2.87
2019-03-28T20:55:15.249Z,3.05
2019-03-28T20:57:45.566Z,3.25
2019-03-28T21:00:15.977Z,3.15
2019-03-28T21:02:46.320Z,3.08
2019-03-28T21:05:16.665Z,6.17
2019-03-28T21:07:46.950Z,7.62
2019-03-28T21:10:25.347Z,6.47
2019-03-28T21:12:55.421Z,5.70
2019-03-28T21:15:25.706Z,4.97
2019-03-28T21:17:55.934Z,5.00
2019-03-28T21:20:26.263Z,4.70
2019-03-28T21:22:56.518Z,4.47
2019-03-28T21:25:29.404Z,3.77
2019-03-28T21:27:58.855Z,4.80
2019-03-28T21:30:29.708Z,3.90
2019-03-28T21:32:59.973Z,4.55
2019-03-28T21:35:30.448Z,4.65
2019-03-28T21:38:00.720Z,4.28
2019-03-28T21:40:30.892Z,3.85
2019-03-28T21:43:01.322Z,3.52
2019-03-28T21:45:31.625Z,3.77
2019-03-28T21:48:01.840Z,3.75
2019-03-28T21:50:32.501Z,3.60
2019-03-28T21:53:02.564Z,3.10
2019-03-28T21:55:32.779Z,2.92
2019-03-28T21:58:02.962Z,3.33
2019-03-28T22:00:33.117Z,2.85
2019-03-28T22:03:03.470Z,2.90
2019-03-28T22:05:33.837Z,3.00
2019-03-28T22:08:04.158Z,2.60
2019-03-28T22:10:34.279Z,2.50
2019-03-28T22:13:04.493Z,2.80
2019-03-28T22:15:34.705Z,2.50
2019-03-28T22:18:05.240Z,2.33
2019-03-28T22:20:35.477Z,2.60
2019-03-28T22:23:05.800Z,2.70
2019-03-28T22:25:36.231Z,2.55
2019-03-28T22:28:06.869Z,2.00
2019-03-28T22:30:37.054Z,2.33
2019-03-28T22:33:07.267Z,2.40
2019-03-28T22:35:37.533Z,2.10
2019-03-28T22:38:07.849Z,2.37
2019-03-28T22:40:38.201Z,2.30
2019-03-28T22:43:08.501Z,2.23
2019-03-28T22:45:38.929Z,2.25
2019-03-28T22:48:11.043Z,2.30
2019-03-28T22:50:41.319Z,2.47
2019-03-28T22:53:11.551Z,2.20
2019-03-28T22:55:41.759Z,2.02
2019-03-28T22:58:12.012Z,2.10
2019-03-28T23:00:44.798Z,1.77
2019-03-28T23:03:15.911Z,1.82
2019-03-28T23:08:16.051Z,2.20
2019-03-28T23:10:46.370Z,1.93
2019-03-28T23:13:16.619Z,1.92
2019-03-28T23:15:47.223Z,1.90
2019-03-28T23:18:17.523Z,2.02
2019-03-28T23:20:47.974Z,2.03
2019-03-28T23:23:18.125Z,2.30
2019-03-28T23:25:48.364Z,1.80
2019-03-28T23:28:19.021Z,1.90
2019-03-28T23:30:49.375Z,1.90
2019-03-28T23:33:19.600Z,1.60
2019-03-28T23:35:49.857Z,1.80
2019-03-28T23:38:20.195Z,1.87
2019-03-28T23:40:50.490Z,1.75
2019-03-28T23:43:20.652Z,1.60
2019-03-28T23:45:51.015Z,1.80
2019-03-28T23:48:21.833Z,1.55
2019-03-28T23:53:21.993Z,1.60
2019-03-28T23:55:52.185Z,1.82
2019-03-28T23:58:22.436Z,1.60
